Terminal Aerodrome Forecast
Issued by NWS

Home | Current Version | Previous Version | Graphics & Text | Print | Product List | Glossary On
Versions: 1 2 3 4 5 6 7 8 9 10 11 12 13 14 15 16 17 18 19 20 21 22 23 24 25 26 27 28 29 30 31 32
000
FTUS43 KPAH 252250 AAA
TAFOWB
TAF AMD
KOWB 252250Z 2523/2618 26012G20KT 5SM -TSRA BKN035CB
      TEMPO 2523/2601 VRB20G40KT 1SM +TSRA BR OVC008CB
     FM260400 36010KT P6SM OVC007=

USA.gov is the U.S. government's official web portal to all federal, state and local government web resources and services.